sensor_id;sensor_type;location;lat;lon;timestamp;temperature;humidity
65058;HTU21D;51644;51.068;5.860;2023-08-30T00:00:40;16.66;78.44
65058;HTU21D;51644;51.068;5.860;2023-08-30T00:01:38;16.69;78.34
65058;HTU21D;51644;51.068;5.860;2023-08-30T00:02:37;16.71;78.37
65058;HTU21D;51644;51.068;5.860;2023-08-30T00:03:39;16.74;78.35
65058;HTU21D;51644;51.068;5.860;2023-08-30T00:04:38;16.74;78.36
65058;HTU21D;51644;51.068;5.860;2023-08-30T00:05:39;16.77;78.40
65058;HTU21D;51644;51.068;5.860;2023-08-30T00:06:38;16.78;78.28
65058;HTU21D;51644;51.068;5.860;2023-08-30T00:07:37;16.79;78.30
65058;HTU21D;51644;51.068;5.860;2023-08-30T00:08:41;16.76;78.35
65058;HTU21D;51644;51.068;5.860;2023-08-30T00:09:43;16.74;78.37
65058;HTU21D;51644;51.068;5.860;2023-08-30T00:10:42;16.73;78.37
65058;HTU21D;51644;51.068;5.860;2023-08-30T00:11:41;16.71;78.42
65058;HTU21D;51644;51.068;5.860;2023-08-30T00:12:42;16.67;78.45
65058;HTU21D;51644;51.068;5.860;2023-08-30T00:13:44;16.64;78.50
65058;HTU21D;51644;51.068;5.860;2023-08-30T00:14:42;16.60;78.65
65058;HTU21D;51644;51.068;5.860;2023-08-30T00:15:42;16.58;78.81
65058;HTU21D;51644;51.068;5.860;2023-08-30T00:16:40;16.57;78.93
65058;HTU21D;51644;51.068;5.860;2023-08-30T00:17:39;16.56;79.03
65058;HTU21D;51644;51.068;5.860;2023-08-30T00:18:38;16.51;79.09
65058;HTU21D;51644;51.068;5.860;2023-08-30T00:19:37;16.50;79.15
65058;HTU21D;51644;51.068;5.860;2023-08-30T00:20:38;16.47;79.19
65058;HTU21D;51644;51.068;5.860;2023-08-30T00:21:37;16.42;79.37
65058;HTU21D;51644;51.068;5.860;2023-08-30T00:22:35;16.40;79.41
65058;HTU21D;51644;51.068;5.860;2023-08-30T00:23:34;16.36;79.51
65058;HTU21D;51644;51.068;5.860;2023-08-30T00:24:34;16.33;79.67
65058;HTU21D;51644;51.068;5.860;2023-08-30T00:25:33;16.31;79.71
65058;HTU21D;51644;51.068;5.860;2023-08-30T00:26:32;16.29;79.74
65058;HTU21D;51644;51.068;5.860;2023-08-30T00:27:32;16.28;79.82
65058;HTU21D;51644;51.068;5.860;2023-08-30T00:28:31;16.26;79.90
65058;HTU21D;51644;51.068;5.860;2023-08-30T00:29:30;16.27;79.84
65058;HTU21D;51644;51.068;5.860;2023-08-30T00:30:28;16.27;79.87
65058;HTU21D;51644;51.068;5.860;2023-08-30T00:31:27;16.27;79.89
65058;HTU21D;51644;51.068;5.860;2023-08-30T00:32:29;16.29;79.82
65058;HTU21D;51644;51.068;5.860;2023-08-30T00:33:28;16.31;79.84
65058;HTU21D;51644;51.068;5.860;2023-08-30T00:34:27;16.32;79.76
65058;HTU21D;51644;51.068;5.860;2023-08-30T00:35:29;16.34;79.66
65058;HTU21D;51644;51.068;5.860;2023-08-30T00:36:28;16.34;79.64
65058;HTU21D;51644;51.068;5.860;2023-08-30T00:37:30;16.35;79.61
65058;HTU21D;51644;51.068;5.860;2023-08-30T00:38:32;16.35;79.53
65058;HTU21D;51644;51.068;5.860;2023-08-30T00:39:31;16.34;79.57
65058;HTU21D;51644;51.068;5.860;2023-08-30T00:40:39;16.35;79.50
65058;HTU21D;51644;51.068;5.860;2023-08-30T00:41:38;16.36;79.39
65058;HTU21D;51644;51.068;5.860;2023-08-30T00:42:37;16.34;79.46
65058;HTU21D;51644;51.068;5.860;2023-08-30T00:43:38;16.31;79.48
65058;HTU21D;51644;51.068;5.860;2023-08-30T00:44:40;16.30;79.48
65058;HTU21D;51644;51.068;5.860;2023-08-30T00:45:40;16.27;79.53
65058;HTU21D;51644;51.068;5.860;2023-08-30T00:46:39;16.28;79.52
65058;HTU21D;51644;51.068;5.860;2023-08-30T00:47:38;16.21;79.65
65058;HTU21D;51644;51.068;5.860;2023-08-30T00:48:46;16.20;79.80
65058;HTU21D;51644;51.068;5.860;2023-08-30T00:49:45;16.19;79.85
65058;HTU21D;51644;51.068;5.860;2023-08-30T00:50:44;16.18;79.89
65058;HTU21D;51644;51.068;5.860;2023-08-30T00:51:43;16.19;79.96
65058;HTU21D;51644;51.068;5.860;2023-08-30T00:52:42;16.20;79.99
65058;HTU21D;51644;51.068;5.860;2023-08-30T00:53:44;16.21;80.03
65058;HTU21D;51644;51.068;5.860;2023-08-30T00:54:43;16.22;80.06
65058;HTU21D;51644;51.068;5.860;2023-08-30T00:55:42;16.24;79.98
65058;HTU21D;51644;51.068;5.860;2023-08-30T00:56:42;16.27;79.91
65058;HTU21D;51644;51.068;5.860;2023-08-30T00:57:41;16.27;79.87
65058;HTU21D;51644;51.068;5.860;2023-08-30T00:58:42;16.29;79.88
65058;HTU21D;51644;51.068;5.860;2023-08-30T00:59:41;16.31;79.80
65058;HTU21D;51644;51.068;5.860;2023-08-30T01:00:40;16.34;79.71
65058;HTU21D;51644;51.068;5.860;2023-08-30T01:01:40;16.37;79.64
65058;HTU21D;51644;51.068;5.860;2023-08-30T01:02:40;16.41;79.53
65058;HTU21D;51644;51.068;5.860;2023-08-30T01:03:39;16.45;79.42
65058;HTU21D;51644;51.068;5.860;2023-08-30T01:04:38;16.47;79.30
65058;HTU21D;51644;51.068;5.860;2023-08-30T01:05:37;16.49;79.26
65058;HTU21D;51644;51.068;5.860;2023-08-30T01:06:39;16.51;79.14
65058;HTU21D;51644;51.068;5.860;2023-08-30T01:07:38;16.55;79.11
65058;HTU21D;51644;51.068;5.860;2023-08-30T01:08:41;16.57;79.11
65058;HTU21D;51644;51.068;5.860;2023-08-30T01:09:41;16.62;78.95
65058;HTU21D;51644;51.068;5.860;2023-08-30T01:12:22;16.69;78.70
65058;HTU21D;51644;51.068;5.860;2023-08-30T01:13:22;16.71;78.56
65058;HTU21D;51644;51.068;5.860;2023-08-30T01:14:29;16.71;78.43
65058;HTU21D;51644;51.068;5.860;2023-08-30T01:15:31;16.72;78.33
65058;HTU21D;51644;51.068;5.860;2023-08-30T01:16:31;16.71;78.24
65058;HTU21D;51644;51.068;5.860;2023-08-30T01:17:35;16.71;78.22
65058;HTU21D;51644;51.068;5.860;2023-08-30T01:18:38;16.69;78.26
65058;HTU21D;51644;51.068;5.860;2023-08-30T01:20:48;16.65;78.32
65058;HTU21D;51644;51.068;5.860;2023-08-30T01:21:57;16.63;78.37
65058;HTU21D;51644;51.068;5.860;2023-08-30T01:24:37;16.59;78.52
65058;HTU21D;51644;51.068;5.860;2023-08-30T01:25:57;16.57;78.59
65058;HTU21D;51644;51.068;5.860;2023-08-30T01:27:11;16.56;78.58
65058;HTU21D;51644;51.068;5.860;2023-08-30T01:28:11;16.54;78.59
65058;HTU21D;51644;51.068;5.860;2023-08-30T01:29:13;16.50;78.66
65058;HTU21D;51644;51.068;5.860;2023-08-30T01:30:16;16.47;78.68
65058;HTU21D;51644;51.068;5.860;2023-08-30T01:31:16;16.43;78.78
65058;HTU21D;51644;51.068;5.860;2023-08-30T01:32:22;16.41;78.90
65058;HTU21D;51644;51.068;5.860;2023-08-30T01:33:25;16.35;79.01
65058;HTU21D;51644;51.068;5.860;2023-08-30T01:34:26;16.34;79.08
65058;HTU21D;51644;51.068;5.860;2023-08-30T01:35:35;16.34;79.11
65058;HTU21D;51644;51.068;5.860;2023-08-30T01:36:36;16.33;79.19
65058;HTU21D;51644;51.068;5.860;2023-08-30T01:37:39;16.33;79.24
65058;HTU21D;51644;51.068;5.860;2023-08-30T01:38:41;16.34;79.22
65058;HTU21D;51644;51.068;5.860;2023-08-30T01:39:42;16.34;79.22
65058;HTU21D;51644;51.068;5.860;2023-08-30T01:40:52;16.36;79.21
65058;HTU21D;51644;51.068;5.860;2023-08-30T01:41:52;16.36;79.17
65058;HTU21D;51644;51.068;5.860;2023-08-30T01:42:58;16.39;79.11
65058;HTU21D;51644;51.068;5.860;2023-08-30T01:43:58;16.39;79.08
65058;HTU21D;51644;51.068;5.860;2023-08-30T01:44:58;16.39;79.07
65058;HTU21D;51644;51.068;5.860;2023-08-30T01:46:00;16.41;79.11
65058;HTU21D;51644;51.068;5.860;2023-08-30T01:47:02;16.43;79.10
65058;HTU21D;51644;51.068;5.860;2023-08-30T01:48:11;16.43;78.98
65058;HTU21D;51644;51.068;5.860;2023-08-30T01:49:10;16.43;79.02
65058;HTU21D;51644;51.068;5.860;2023-08-30T01:50:22;16.45;78.92
65058;HTU21D;51644;51.068;5.860;2023-08-30T01:51:22;16.46;78.93
65058;HTU21D;51644;51.068;5.860;2023-08-30T01:52:22;16.50;78.79
65058;HTU21D;51644;51.068;5.860;2023-08-30T01:53:44;16.51;78.71
65058;HTU21D;51644;51.068;5.860;2023-08-30T01:54:53;16.52;78.65
65058;HTU21D;51644;51.068;5.860;2023-08-30T01:55:52;16.54;78.61
65058;HTU21D;51644;51.068;5.860;2023-08-30T01:56:54;16.54;78.58
65058;HTU21D;51644;51.068;5.860;2023-08-30T01:57:53;16.55;78.63
65058;HTU21D;51644;51.068;5.860;2023-08-30T01:58:54;16.56;78.63
65058;HTU21D;51644;51.068;5.860;2023-08-30T01:59:53;16.58;78.56
65058;HTU21D;51644;51.068;5.860;2023-08-30T02:00:52;16.59;78.50
65058;HTU21D;51644;51.068;5.860;2023-08-30T02:01:51;16.58;78.50
65058;HTU21D;51644;51.068;5.860;2023-08-30T02:02:50;16.59;78.50
65058;HTU21D;51644;51.068;5.860;2023-08-30T02:03:49;16.61;78.49
65058;HTU21D;51644;51.068;5.860;2023-08-30T02:04:48;16.63;78.45
65058;HTU21D;51644;51.068;5.860;2023-08-30T02:06:07;16.64;78.47
65058;HTU21D;51644;51.068;5.860;2023-08-30T02:07:16;16.65;78.43
65058;HTU21D;51644;51.068;5.860;2023-08-30T02:08:17;16.70;78.47
65058;HTU21D;51644;51.068;5.860;2023-08-30T02:09:36;16.72;78.52
65058;HTU21D;51644;51.068;5.860;2023-08-30T02:10:42;16.77;78.50
65058;HTU21D;51644;51.068;5.860;2023-08-30T02:11:45;16.81;78.50
65058;HTU21D;51644;51.068;5.860;2023-08-30T02:12:48;16.84;78.45
65058;HTU21D;51644;51.068;5.860;2023-08-30T02:13:53;16.87;78.40
65058;HTU21D;51644;51.068;5.860;2023-08-30T02:14:53;16.90;78.31
65058;HTU21D;51644;51.068;5.860;2023-08-30T02:16:00;16.92;78.24
65058;HTU21D;51644;51.068;5.860;2023-08-30T02:17:03;16.94;78.14
65058;HTU21D;51644;51.068;5.860;2023-08-30T02:18:05;16.95;78.05
65058;HTU21D;51644;51.068;5.860;2023-08-30T02:19:06;16.98;77.93
65058;HTU21D;51644;51.068;5.860;2023-08-30T02:20:06;16.96;77.82
65058;HTU21D;51644;51.068;5.860;2023-08-30T02:21:05;16.95;77.78
65058;HTU21D;51644;51.068;5.860;2023-08-30T02:22:04;16.93;77.76
65058;HTU21D;51644;51.068;5.860;2023-08-30T02:23:03;16.91;77.72
65058;HTU21D;51644;51.068;5.860;2023-08-30T02:24:02;16.90;77.76
65058;HTU21D;51644;51.068;5.860;2023-08-30T02:25:03;16.89;77.79
65058;HTU21D;51644;51.068;5.860;2023-08-30T02:26:03;16.89;77.81
65058;HTU21D;51644;51.068;5.860;2023-08-30T02:27:01;16.89;77.86
65058;HTU21D;51644;51.068;5.860;2023-08-30T02:28:01;16.90;77.82
65058;HTU21D;51644;51.068;5.860;2023-08-30T02:28:59;16.90;77.85
65058;HTU21D;51644;51.068;5.860;2023-08-30T02:30:04;16.89;77.78
65058;HTU21D;51644;51.068;5.860;2023-08-30T02:31:05;16.90;77.76
65058;HTU21D;51644;51.068;5.860;2023-08-30T02:32:04;16.93;77.86
65058;HTU21D;51644;51.068;5.860;2023-08-30T02:33:04;16.93;77.98
65058;HTU21D;51644;51.068;5.860;2023-08-30T02:34:03;16.96;78.08
65058;HTU21D;51644;51.068;5.860;2023-08-30T02:35:02;17.00;78.11
65058;HTU21D;51644;51.068;5.860;2023-08-30T02:36:01;17.03;78.14
65058;HTU21D;51644;51.068;5.860;2023-08-30T02:37:00;17.06;78.20
65058;HTU21D;51644;51.068;5.860;2023-08-30T02:37:59;17.08;78.13
65058;HTU21D;51644;51.068;5.860;2023-08-30T02:38:58;17.10;78.01
65058;HTU21D;51644;51.068;5.860;2023-08-30T02:39:56;17.14;77.92
65058;HTU21D;51644;51.068;5.860;2023-08-30T02:40:55;17.16;77.95
65058;HTU21D;51644;51.068;5.860;2023-08-30T02:41:54;17.16;77.77
65058;HTU21D;51644;51.068;5.860;2023-08-30T02:42:53;17.16;77.63
65058;HTU21D;51644;51.068;5.860;2023-08-30T02:43:55;17.15;77.51
65058;HTU21D;51644;51.068;5.860;2023-08-30T02:44:54;17.15;77.44
65058;HTU21D;51644;51.068;5.860;2023-08-30T02:45:53;17.11;77.32
65058;HTU21D;51644;51.068;5.860;2023-08-30T02:46:51;17.09;77.32
65058;HTU21D;51644;51.068;5.860;2023-08-30T02:47:50;17.09;77.31
65058;HTU21D;51644;51.068;5.860;2023-08-30T02:48:49;17.07;77.34
65058;HTU21D;51644;51.068;5.860;2023-08-30T02:49:47;17.07;77.35
65058;HTU21D;51644;51.068;5.860;2023-08-30T02:50:46;17.04;77.37
65058;HTU21D;51644;51.068;5.860;2023-08-30T02:51:45;17.03;77.44
65058;HTU21D;51644;51.068;5.860;2023-08-30T02:52:43;17.02;77.42
65058;HTU21D;51644;51.068;5.860;2023-08-30T02:53:42;17.01;77.48
65058;HTU21D;51644;51.068;5.860;2023-08-30T02:54:41;17.00;77.51
65058;HTU21D;51644;51.068;5.860;2023-08-30T02:55:40;17.01;77.56
65058;HTU21D;51644;51.068;5.860;2023-08-30T02:56:39;17.00;77.59
65058;HTU21D;51644;51.068;5.860;2023-08-30T02:57:40;17.01;77.58
65058;HTU21D;51644;51.068;5.860;2023-08-30T02:58:39;17.01;77.54
65058;HTU21D;51644;51.068;5.860;2023-08-30T02:59:38;17.00;77.54
65058;HTU21D;51644;51.068;5.860;2023-08-30T03:00:41;16.99;77.51
65058;HTU21D;51644;51.068;5.860;2023-08-30T03:01:45;16.98;77.53
65058;HTU21D;51644;51.068;5.860;2023-08-30T03:02:46;16.98;77.57
65058;HTU21D;51644;51.068;5.860;2023-08-30T03:03:48;16.96;77.59
65058;HTU21D;51644;51.068;5.860;2023-08-30T03:04:52;16.94;77.61
65058;HTU21D;51644;51.068;5.860;2023-08-30T03:05:55;16.93;77.61
65058;HTU21D;51644;51.068;5.860;2023-08-30T03:06:55;16.93;77.62
65058;HTU21D;51644;51.068;5.860;2023-08-30T03:07:55;16.93;77.60
65058;HTU21D;51644;51.068;5.860;2023-08-30T03:08:55;16.94;77.55
65058;HTU21D;51644;51.068;5.860;2023-08-30T03:09:56;16.93;77.50
65058;HTU21D;51644;51.068;5.860;2023-08-30T03:10:55;16.91;77.55
65058;HTU21D;51644;51.068;5.860;2023-08-30T03:11:57;16.93;77.50
65058;HTU21D;51644;51.068;5.860;2023-08-30T03:12:56;16.95;77.50
65058;HTU21D;51644;51.068;5.860;2023-08-30T03:13:55;16.96;77.53
65058;HTU21D;51644;51.068;5.860;2023-08-30T03:14:57;17.00;77.51
65058;HTU21D;51644;51.068;5.860;2023-08-30T03:15:56;17.01;77.47
65058;HTU21D;51644;51.068;5.860;2023-08-30T03:17:08;17.04;77.47
65058;HTU21D;51644;51.068;5.860;2023-08-30T03:18:12;17.07;77.38
65058;HTU21D;51644;51.068;5.860;2023-08-30T03:19:11;17.11;77.23
65058;HTU21D;51644;51.068;5.860;2023-08-30T03:20:10;17.13;77.18
65058;HTU21D;51644;51.068;5.860;2023-08-30T03:21:10;17.15;77.11
65058;HTU21D;51644;51.068;5.860;2023-08-30T03:22:09;17.18;77.05
65058;HTU21D;51644;51.068;5.860;2023-08-30T03:23:07;17.18;77.02
65058;HTU21D;51644;51.068;5.860;2023-08-30T03:24:06;17.20;76.92
65058;HTU21D;51644;51.068;5.860;2023-08-30T03:25:08;17.22;76.89
65058;HTU21D;51644;51.068;5.860;2023-08-30T03:26:09;17.22;76.80
65058;HTU21D;51644;51.068;5.860;2023-08-30T03:27:08;17.24;76.80
65058;HTU21D;51644;51.068;5.860;2023-08-30T03:28:07;17.25;76.78
65058;HTU21D;51644;51.068;5.860;2023-08-30T03:29:08;17.26;76.70
65058;HTU21D;51644;51.068;5.860;2023-08-30T03:30:08;17.26;76.65
65058;HTU21D;51644;51.068;5.860;2023-08-30T03:31:21;17.24;76.63
65058;HTU21D;51644;51.068;5.860;2023-08-30T03:32:20;17.26;76.58
65058;HTU21D;51644;51.068;5.860;2023-08-30T03:33:20;17.28;76.58
65058;HTU21D;51644;51.068;5.860;2023-08-30T03:34:19;17.26;76.57
65058;HTU21D;51644;51.068;5.860;2023-08-30T03:35:18;17.25;76.48
65058;HTU21D;51644;51.068;5.860;2023-08-30T03:36:19;17.25;76.38
65058;HTU21D;51644;51.068;5.860;2023-08-30T03:37:19;17.25;76.39
65058;HTU21D;51644;51.068;5.860;2023-08-30T03:38:17;17.26;76.36
65058;HTU21D;51644;51.068;5.860;2023-08-30T03:39:16;17.28;76.33
65058;HTU21D;51644;51.068;5.860;2023-08-30T03:40:18;17.29;76.37
65058;HTU21D;51644;51.068;5.860;2023-08-30T03:41:17;17.24;76.42
65058;HTU21D;51644;51.068;5.860;2023-08-30T03:42:17;17.24;76.26
65058;HTU21D;51644;51.068;5.860;2023-08-30T03:43:15;17.21;76.15
65058;HTU21D;51644;51.068;5.860;2023-08-30T03:44:14;17.19;76.24
65058;HTU21D;51644;51.068;5.860;2023-08-30T03:45:16;17.14;76.37
65058;HTU21D;51644;51.068;5.860;2023-08-30T03:46:15;17.11;76.42
65058;HTU21D;51644;51.068;5.860;2023-08-30T03:47:13;17.09;76.46
65058;HTU21D;51644;51.068;5.860;2023-08-30T03:48:17;17.08;76.45
65058;HTU21D;51644;51.068;5.860;2023-08-30T03:49:16;17.06;76.42
65058;HTU21D;51644;51.068;5.860;2023-08-30T03:50:15;17.05;76.50
65058;HTU21D;51644;51.068;5.860;2023-08-30T03:51:14;17.04;76.53
65058;HTU21D;51644;51.068;5.860;2023-08-30T03:52:12;17.02;76.57
65058;HTU21D;51644;51.068;5.860;2023-08-30T03:53:15;17.02;76.60
65058;HTU21D;51644;51.068;5.860;2023-08-30T03:54:14;17.02;76.63
65058;HTU21D;51644;51.068;5.860;2023-08-30T03:55:15;17.00;76.63
65058;HTU21D;51644;51.068;5.860;2023-08-30T03:56:13;17.00;76.68
65058;HTU21D;51644;51.068;5.860;2023-08-30T03:57:12;17.00;76.67
65058;HTU21D;51644;51.068;5.860;2023-08-30T03:58:11;16.99;76.67
65058;HTU21D;51644;51.068;5.860;2023-08-30T03:59:11;17.00;76.70
65058;HTU21D;51644;51.068;5.860;2023-08-30T04:00:11;16.98;76.75
65058;HTU21D;51644;51.068;5.860;2023-08-30T04:01:15;16.94;76.79
65058;HTU21D;51644;51.068;5.860;2023-08-30T04:02:14;16.93;76.82
65058;HTU21D;51644;51.068;5.860;2023-08-30T04:03:16;16.92;76.85
65058;HTU21D;51644;51.068;5.860;2023-08-30T04:04:18;16.93;76.82
65058;HTU21D;51644;51.068;5.860;2023-08-30T04:05:17;16.94;76.79
65058;HTU21D;51644;51.068;5.860;2023-08-30T04:06:15;16.92;76.85
65058;HTU21D;51644;51.068;5.860;2023-08-30T04:07:15;16.91;76.98
65058;HTU21D;51644;51.068;5.860;2023-08-30T04:08:14;16.91;76.83
65058;HTU21D;51644;51.068;5.860;2023-08-30T04:09:13;16.93;76.78
65058;HTU21D;51644;51.068;5.860;2023-08-30T04:10:12;16.93;76.77
65058;HTU21D;51644;51.068;5.860;2023-08-30T04:11:10;16.93;76.73
65058;HTU21D;51644;51.068;5.860;2023-08-30T04:12:09;16.93;76.71
65058;HTU21D;51644;51.068;5.860;2023-08-30T04:13:08;16.91;76.73
65058;HTU21D;51644;51.068;5.860;2023-08-30T04:14:12;16.92;76.76
65058;HTU21D;51644;51.068;5.860;2023-08-30T04:15:14;16.91;76.79
65058;HTU21D;51644;51.068;5.860;2023-08-30T04:16:13;16.90;76.79
65058;HTU21D;51644;51.068;5.860;2023-08-30T04:17:12;16.92;76.84
65058;HTU21D;51644;51.068;5.860;2023-08-30T04:18:11;16.93;76.83
65058;HTU21D;51644;51.068;5.860;2023-08-30T04:19:09;16.93;76.84
65058;HTU21D;51644;51.068;5.860;2023-08-30T04:20:08;16.91;76.91
65058;HTU21D;51644;51.068;5.860;2023-08-30T04:21:16;16.90;76.93
65058;HTU21D;51644;51.068;5.860;2023-08-30T04:22:15;16.90;76.98
65058;HTU21D;51644;51.068;5.860;2023-08-30T04:23:14;16.91;77.03
65058;HTU21D;51644;51.068;5.860;2023-08-30T04:24:14;16.91;77.02
65058;HTU21D;51644;51.068;5.860;2023-08-30T04:25:13;16.92;77.05
65058;HTU21D;51644;51.068;5.860;2023-08-30T04:26:12;16.92;77.07
65058;HTU21D;51644;51.068;5.860;2023-08-30T04:27:10;16.90;77.16
65058;HTU21D;51644;51.068;5.860;2023-08-30T04:28:12;16.89;77.20
65058;HTU21D;51644;51.068;5.860;2023-08-30T04:29:11;16.89;77.31
65058;HTU21D;51644;51.068;5.860;2023-08-30T04:30:13;16.88;77.40
65058;HTU21D;51644;51.068;5.860;2023-08-30T04:31:14;16.88;77.49
65058;HTU21D;51644;51.068;5.860;2023-08-30T04:32:13;16.88;77.56
65058;HTU21D;51644;51.068;5.860;2023-08-30T04:33:12;16.88;77.63
65058;HTU21D;51644;51.068;5.860;2023-08-30T04:34:11;16.87;77.64
65058;HTU21D;51644;51.068;5.860;2023-08-30T04:35:10;16.85;77.75
65058;HTU21D;51644;51.068;5.860;2023-08-30T04:36:09;16.82;77.81
65058;HTU21D;51644;51.068;5.860;2023-08-30T04:37:08;16.79;77.97
65058;HTU21D;51644;51.068;5.860;2023-08-30T04:38:06;16.78;78.09
65058;HTU21D;51644;51.068;5.860;2023-08-30T04:39:06;16.77;78.19
65058;HTU21D;51644;51.068;5.860;2023-08-30T04:40:06;16.78;78.27
65058;HTU21D;51644;51.068;5.860;2023-08-30T04:41:06;16.78;78.24
65058;HTU21D;51644;51.068;5.860;2023-08-30T04:42:07;16.77;78.34
65058;HTU21D;51644;51.068;5.860;2023-08-30T04:43:06;16.78;78.35
65058;HTU21D;51644;51.068;5.860;2023-08-30T04:44:05;16.78;78.33
65058;HTU21D;51644;51.068;5.860;2023-08-30T04:45:04;16.78;78.37
65058;HTU21D;51644;51.068;5.860;2023-08-30T04:46:03;16.78;78.40
65058;HTU21D;51644;51.068;5.860;2023-08-30T04:47:03;16.76;78.49
65058;HTU21D;51644;51.068;5.860;2023-08-30T04:48:01;16.77;78.47
65058;HTU21D;51644;51.068;5.860;2023-08-30T04:49:04;16.77;78.47
65058;HTU21D;51644;51.068;5.860;2023-08-30T04:50:06;16.74;78.66
65058;HTU21D;51644;51.068;5.860;2023-08-30T04:51:05;16.74;78.56
65058;HTU21D;51644;51.068;5.860;2023-08-30T04:52:04;16.75;78.57
65058;HTU21D;51644;51.068;5.860;2023-08-30T04:53:04;16.75;78.59
65058;HTU21D;51644;51.068;5.860;2023-08-30T04:54:02;16.76;78.60
65058;HTU21D;51644;51.068;5.860;2023-08-30T04:55:01;16.79;78.59
65058;HTU21D;51644;51.068;5.860;2023-08-30T04:56:09;16.76;78.60
65058;HTU21D;51644;51.068;5.860;2023-08-30T04:57:08;16.77;78.50
65058;HTU21D;51644;51.068;5.860;2023-08-30T04:58:06;16.76;78.47
65058;HTU21D;51644;51.068;5.860;2023-08-30T04:59:07;16.72;78.59
65058;HTU21D;51644;51.068;5.860;2023-08-30T05:00:06;16.72;78.51
65058;HTU21D;51644;51.068;5.860;2023-08-30T05:01:05;16.72;78.50
65058;HTU21D;51644;51.068;5.860;2023-08-30T05:02:05;16.69;78.56
65058;HTU21D;51644;51.068;5.860;2023-08-30T05:03:07;16.67;78.53
65058;HTU21D;51644;51.068;5.860;2023-08-30T05:04:05;16.64;78.61
65058;HTU21D;51644;51.068;5.860;2023-08-30T05:05:04;16.62;78.77
65058;HTU21D;51644;51.068;5.860;2023-08-30T05:06:04;16.62;78.72
65058;HTU21D;51644;51.068;5.860;2023-08-30T05:07:03;16.60;78.81
65058;HTU21D;51644;51.068;5.860;2023-08-30T05:08:02;16.63;78.54
65058;HTU21D;51644;51.068;5.860;2023-08-30T05:09:03;16.61;78.63
65058;HTU21D;51644;51.068;5.860;2023-08-30T05:10:02;16.63;78.54
65058;HTU21D;51644;51.068;5.860;2023-08-30T05:11:01;16.58;78.73
65058;HTU21D;51644;51.068;5.860;2023-08-30T05:12:01;16.59;78.70
65058;HTU21D;51644;51.068;5.860;2023-08-30T05:13:01;16.58;78.68
65058;HTU21D;51644;51.068;5.860;2023-08-30T05:14:00;16.61;78.53
65058;HTU21D;51644;51.068;5.860;2023-08-30T05:14:58;16.62;78.50
65058;HTU21D;51644;51.068;5.860;2023-08-30T05:15:59;16.66;78.34
65058;HTU21D;51644;51.068;5.860;2023-08-30T05:16:58;16.62;78.34
65058;HTU21D;51644;51.068;5.860;2023-08-30T05:17:57;16.64;78.30
65058;HTU21D;51644;51.068;5.860;2023-08-30T05:18:55;16.65;78.25
65058;HTU21D;51644;51.068;5.860;2023-08-30T05:19:54;16.67;78.21
65058;HTU21D;51644;51.068;5.860;2023-08-30T05:20:53;16.70;78.11
65058;HTU21D;51644;51.068;5.860;2023-08-30T05:21:52;16.73;77.98
65058;HTU21D;51644;51.068;5.860;2023-08-30T05:22:53;16.72;77.89
65058;HTU21D;51644;51.068;5.860;2023-08-30T05:23:52;16.74;77.93
65058;HTU21D;51644;51.068;5.860;2023-08-30T05:24:50;16.76;77.76
65058;HTU21D;51644;51.068;5.860;2023-08-30T05:25:50;16.77;77.78
65058;HTU21D;51644;51.068;5.860;2023-08-30T05:26:49;16.78;77.74
65058;HTU21D;51644;51.068;5.860;2023-08-30T05:27:49;16.74;77.72
65058;HTU21D;51644;51.068;5.860;2023-08-30T05:28:48;16.77;77.63
65058;HTU21D;51644;51.068;5.860;2023-08-30T05:29:47;16.74;77.78
65058;HTU21D;51644;51.068;5.860;2023-08-30T05:30:46;16.76;77.67
65058;HTU21D;51644;51.068;5.860;2023-08-30T05:31:56;16.79;77.59
65058;HTU21D;51644;51.068;5.860;2023-08-30T05:33:11;16.81;77.50
65058;HTU21D;51644;51.068;5.860;2023-08-30T05:34:16;16.82;77.46
65058;HTU21D;51644;51.068;5.860;2023-08-30T05:35:35;16.86;77.34
65058;HTU21D;51644;51.068;5.860;2023-08-30T05:36:57;16.88;77.27
65058;HTU21D;51644;51.068;5.860;2023-08-30T05:38:22;16.89;77.24
65058;HTU21D;51644;51.068;5.860;2023-08-30T05:39:31;16.92;77.06
65058;HTU21D;51644;51.068;5.860;2023-08-30T05:40:30;16.94;76.98
65058;HTU21D;51644;51.068;5.860;2023-08-30T05:41:29;16.94;76.92
65058;HTU21D;51644;51.068;5.860;2023-08-30T05:42:28;16.94;76.91
65058;HTU21D;51644;51.068;5.860;2023-08-30T05:43:28;16.96;76.85
65058;HTU21D;51644;51.068;5.860;2023-08-30T05:44:27;16.96;76.82
65058;HTU21D;51644;51.068;5.860;2023-08-30T05:45:25;16.98;76.74
65058;HTU21D;51644;51.068;5.860;2023-08-30T05:46:25;16.95;76.79
65058;HTU21D;51644;51.068;5.860;2023-08-30T05:47:23;16.96;76.70
65058;HTU21D;51644;51.068;5.860;2023-08-30T05:48:23;16.95;76.60
65058;HTU21D;51644;51.068;5.860;2023-08-30T05:49:21;16.96;76.59
65058;HTU21D;51644;51.068;5.860;2023-08-30T05:50:20;16.94;76.67
65058;HTU21D;51644;51.068;5.860;2023-08-30T05:51:18;16.94;76.54
65058;HTU21D;51644;51.068;5.860;2023-08-30T05:52:18;16.92;76.64
65058;HTU21D;51644;51.068;5.860;2023-08-30T05:53:17;16.92;76.61
65058;HTU21D;51644;51.068;5.860;2023-08-30T05:54:16;16.93;76.53
65058;HTU21D;51644;51.068;5.860;2023-08-30T05:55:14;16.92;76.53
65058;HTU21D;51644;51.068;5.860;2023-08-30T05:56:13;16.91;76.53
65058;HTU21D;51644;51.068;5.860;2023-08-30T05:57:12;16.92;76.50
65058;HTU21D;51644;51.068;5.860;2023-08-30T05:58:10;16.94;76.43
65058;HTU21D;51644;51.068;5.860;2023-08-30T05:59:09;16.91;76.50
65058;HTU21D;51644;51.068;5.860;2023-08-30T06:00:08;16.92;76.22
65058;HTU21D;51644;51.068;5.860;2023-08-30T06:01:12;16.93;76.27
65058;HTU21D;51644;51.068;5.860;2023-08-30T06:02:10;16.95;76.24
65058;HTU21D;51644;51.068;5.860;2023-08-30T06:03:09;16.96;76.12
65058;HTU21D;51644;51.068;5.860;2023-08-30T06:04:09;16.99;76.10
65058;HTU21D;51644;51.068;5.860;2023-08-30T06:05:08;17.04;75.98
65058;HTU21D;51644;51.068;5.860;2023-08-30T06:06:06;17.07;75.77
65058;HTU21D;51644;51.068;5.860;2023-08-30T06:07:05;17.10;75.63
65058;HTU21D;51644;51.068;5.860;2023-08-30T06:08:04;17.16;75.50
65058;HTU21D;51644;51.068;5.860;2023-08-30T06:09:02;17.21;75.33
65058;HTU21D;51644;51.068;5.860;2023-08-30T06:10:02;17.29;75.17
65058;HTU21D;51644;51.068;5.860;2023-08-30T06:11:01;17.37;74.89
65058;HTU21D;51644;51.068;5.860;2023-08-30T06:11:59;17.46;74.64
65058;HTU21D;51644;51.068;5.860;2023-08-30T06:12:58;17.55;74.32
65058;HTU21D;51644;51.068;5.860;2023-08-30T06:13:56;17.62;73.99
65058;HTU21D;51644;51.068;5.860;2023-08-30T06:14:57;17.72;73.65
65058;HTU21D;51644;51.068;5.860;2023-08-30T06:15:56;17.76;73.36
65058;HTU21D;51644;51.068;5.860;2023-08-30T06:16:54;17.84;72.96
65058;HTU21D;51644;51.068;5.860;2023-08-30T06:17:53;17.85;72.80
65058;HTU21D;51644;51.068;5.860;2023-08-30T06:18:52;17.87;72.58
65058;HTU21D;51644;51.068;5.860;2023-08-30T06:19:50;17.90;72.59
65058;HTU21D;51644;51.068;5.860;2023-08-30T06:20:49;17.94;72.51
65058;HTU21D;51644;51.068;5.860;2023-08-30T06:21:48;17.94;72.33